sensor_id;sensor_type;location;lat;lon;timestamp;P1;durP1;ratioP1;P2;durP2;ratioP2
64915;SDS011;51427;-27.442;153.014;2022-09-24T00:01:48;2.40;;;0.43;;
64915;SDS011;51427;-27.442;153.014;2022-09-24T00:04:16;1.83;;;0.40;;
64915;SDS011;51427;-27.442;153.014;2022-09-24T00:06:45;0.30;;;0.30;;
64915;SDS011;51427;-27.442;153.014;2022-09-24T00:09:14;0.57;;;0.30;;
64915;SDS011;51427;-27.442;153.014;2022-09-24T00:11:44;0.40;;;0.40;;
64915;SDS011;51427;-27.442;153.014;2022-09-24T00:14:11;0.40;;;0.40;;
64915;SDS011;51427;-27.442;153.014;2022-09-24T00:16:40;0.80;;;0.80;;
64915;SDS011;51427;-27.442;153.014;2022-09-24T00:19:09;0.70;;;0.70;;
64915;SDS011;51427;-27.442;153.014;2022-09-24T00:21:38;1.90;;;0.65;;
64915;SDS011;51427;-27.442;153.014;2022-09-24T00:24:14;5.82;;;4.82;;
64915;SDS011;51427;-27.442;153.014;2022-09-24T00:27:01;2.20;;;1.50;;
64915;SDS011;51427;-27.442;153.014;2022-09-24T00:29:30;1.85;;;1.73;;
64915;SDS011;51427;-27.442;153.014;2022-09-24T00:32:00;0.50;;;0.50;;
64915;SDS011;51427;-27.442;153.014;2022-09-24T00:34:28;0.80;;;0.65;;
64915;SDS011;51427;-27.442;153.014;2022-09-24T00:36:56;0.38;;;0.38;;
64915;SDS011;51427;-27.442;153.014;2022-09-24T00:39:24;0.30;;;0.30;;
64915;SDS011;51427;-27.442;153.014;2022-09-24T00:41:52;0.30;;;0.30;;
64915;SDS011;51427;-27.442;153.014;2022-09-24T00:49:45;0.75;;;0.50;;
64915;SDS011;51427;-27.442;153.014;2022-09-24T00:52:15;0.85;;;0.50;;
64915;SDS011;51427;-27.442;153.014;2022-09-24T00:54:44;2.28;;;0.57;;
64915;SDS011;51427;-27.442;153.014;2022-09-24T00:57:13;0.50;;;0.45;;
64915;SDS011;51427;-27.442;153.014;2022-09-24T00:59:41;0.55;;;0.40;;
64915;SDS011;51427;-27.442;153.014;2022-09-24T01:02:10;0.32;;;0.32;;
64915;SDS011;51427;-27.442;153.014;2022-09-24T01:04:39;1.98;;;0.50;;
64915;SDS011;51427;-27.442;153.014;2022-09-24T01:07:06;0.43;;;0.38;;
64915;SDS011;51427;-27.442;153.014;2022-09-24T01:09:34;0.40;;;0.40;;
64915;SDS011;51427;-27.442;153.014;2022-09-24T01:12:08;0.63;;;0.40;;
64915;SDS011;51427;-27.442;153.014;2022-09-24T01:15:02;1.17;;;0.50;;
64915;SDS011;51427;-27.442;153.014;2022-09-24T01:17:44;0.20;;;0.20;;
64915;SDS011;51427;-27.442;153.014;2022-09-24T01:31:40;0.40;;;0.40;;
64915;SDS011;51427;-27.442;153.014;2022-09-24T01:34:12;1.48;;;0.60;;
64915;SDS011;51427;-27.442;153.014;2022-09-24T01:36:45;0.40;;;0.40;;
64915;SDS011;51427;-27.442;153.014;2022-09-24T01:39:15;0.38;;;0.30;;
64915;SDS011;51427;-27.442;153.014;2022-09-24T01:41:43;0.55;;;0.30;;
64915;SDS011;51427;-27.442;153.014;2022-09-24T01:44:12;0.40;;;0.40;;
64915;SDS011;51427;-27.442;153.014;2022-09-24T01:46:43;0.30;;;0.30;;
64915;SDS011;51427;-27.442;153.014;2022-09-24T01:49:11;0.82;;;0.55;;
64915;SDS011;51427;-27.442;153.014;2022-09-24T01:51:42;0.30;;;0.30;;
64915;SDS011;51427;-27.442;153.014;2022-09-24T01:54:28;0.40;;;0.40;;
64915;SDS011;51427;-27.442;153.014;2022-09-24T01:57:06;0.93;;;0.50;;
64915;SDS011;51427;-27.442;153.014;2022-09-24T02:00:05;0.30;;;0.30;;
64915;SDS011;51427;-27.442;153.014;2022-09-24T02:02:43;0.35;;;0.28;;
64915;SDS011;51427;-27.442;153.014;2022-09-24T02:05:19;0.57;;;0.40;;
64915;SDS011;51427;-27.442;153.014;2022-09-24T02:07:54;0.93;;;0.40;;
64915;SDS011;51427;-27.442;153.014;2022-09-24T02:13:28;0.43;;;0.40;;
64915;SDS011;51427;-27.442;153.014;2022-09-24T02:16:04;0.38;;;0.30;;
64915;SDS011;51427;-27.442;153.014;2022-09-24T02:18:35;0.55;;;0.30;;
64915;SDS011;51427;-27.442;153.014;2022-09-24T02:21:08;0.52;;;0.38;;
64915;SDS011;51427;-27.442;153.014;2022-09-24T02:23:39;0.30;;;0.30;;
64915;SDS011;51427;-27.442;153.014;2022-09-24T02:26:35;1.42;;;0.47;;
64915;SDS011;51427;-27.442;153.014;2022-09-24T02:29:02;1.20;;;0.68;;
64915;SDS011;51427;-27.442;153.014;2022-09-24T02:31:31;0.38;;;0.38;;
64915;SDS011;51427;-27.442;153.014;2022-09-24T02:34:14;0.50;;;0.45;;
64915;SDS011;51427;-27.442;153.014;2022-09-24T02:39:20;0.30;;;0.30;;
64915;SDS011;51427;-27.442;153.014;2022-09-24T02:41:48;0.30;;;0.30;;
64915;SDS011;51427;-27.442;153.014;2022-09-24T02:44:17;0.95;;;0.52;;
64915;SDS011;51427;-27.442;153.014;2022-09-24T02:46:45;0.65;;;0.47;;
64915;SDS011;51427;-27.442;153.014;2022-09-24T02:49:15;0.40;;;0.40;;
64915;SDS011;51427;-27.442;153.014;2022-09-24T02:51:43;0.60;;;0.40;;
64915;SDS011;51427;-27.442;153.014;2022-09-24T02:54:11;0.47;;;0.47;;
64915;SDS011;51427;-27.442;153.014;2022-09-24T02:56:38;0.40;;;0.40;;
64915;SDS011;51427;-27.442;153.014;2022-09-24T02:59:07;0.32;;;0.32;;
64915;SDS011;51427;-27.442;153.014;2022-09-24T03:01:35;1.75;;;0.60;;
64915;SDS011;51427;-27.442;153.014;2022-09-24T03:04:03;0.40;;;0.40;;
64915;SDS011;51427;-27.442;153.014;2022-09-24T03:06:31;0.30;;;0.30;;
64915;SDS011;51427;-27.442;153.014;2022-09-24T03:08:59;0.40;;;0.40;;
64915;SDS011;51427;-27.442;153.014;2022-09-24T03:11:28;0.40;;;0.40;;
64915;SDS011;51427;-27.442;153.014;2022-09-24T03:13:58;0.40;;;0.40;;
64915;SDS011;51427;-27.442;153.014;2022-09-24T03:16:26;0.60;;;0.55;;
64915;SDS011;51427;-27.442;153.014;2022-09-24T03:18:53;1.42;;;0.70;;
64915;SDS011;51427;-27.442;153.014;2022-09-24T03:21:21;0.70;;;0.40;;
64915;SDS011;51427;-27.442;153.014;2022-09-24T03:23:49;0.40;;;0.40;;
64915;SDS011;51427;-27.442;153.014;2022-09-24T03:26:16;0.40;;;0.40;;
64915;SDS011;51427;-27.442;153.014;2022-09-24T03:28:44;0.40;;;0.40;;
64915;SDS011;51427;-27.442;153.014;2022-09-24T03:31:12;1.48;;;0.60;;
64915;SDS011;51427;-27.442;153.014;2022-09-24T03:33:44;0.32;;;0.32;;
64915;SDS011;51427;-27.442;153.014;2022-09-24T03:36:17;0.50;;;0.50;;
64915;SDS011;51427;-27.442;153.014;2022-09-24T03:38:50;0.50;;;0.50;;
64915;SDS011;51427;-27.442;153.014;2022-09-24T03:41:25;0.52;;;0.52;;
64915;SDS011;51427;-27.442;153.014;2022-09-24T03:43:54;0.95;;;0.60;;
64915;SDS011;51427;-27.442;153.014;2022-09-24T03:46:21;0.40;;;0.40;;
64915;SDS011;51427;-27.442;153.014;2022-09-24T03:48:55;0.98;;;0.50;;
64915;SDS011;51427;-27.442;153.014;2022-09-24T03:51:25;0.80;;;0.80;;
64915;SDS011;51427;-27.442;153.014;2022-09-24T03:53:52;0.57;;;0.57;;
64915;SDS011;51427;-27.442;153.014;2022-09-24T03:56:20;0.73;;;0.40;;
64915;SDS011;51427;-27.442;153.014;2022-09-24T03:58:48;0.73;;;0.60;;
64915;SDS011;51427;-27.442;153.014;2022-09-24T04:01:15;0.95;;;0.40;;
64915;SDS011;51427;-27.442;153.014;2022-09-24T04:03:46;0.50;;;0.40;;
64915;SDS011;51427;-27.442;153.014;2022-09-24T04:06:15;1.30;;;0.75;;
64915;SDS011;51427;-27.442;153.014;2022-09-24T04:08:43;1.25;;;0.88;;
64915;SDS011;51427;-27.442;153.014;2022-09-24T04:11:10;0.73;;;0.73;;
64915;SDS011;51427;-27.442;153.014;2022-09-24T04:13:38;2.30;;;1.10;;
64915;SDS011;51427;-27.442;153.014;2022-09-24T04:16:05;1.10;;;1.10;;
64915;SDS011;51427;-27.442;153.014;2022-09-24T04:18:33;1.00;;;1.00;;
64915;SDS011;51427;-27.442;153.014;2022-09-24T04:21:01;1.85;;;1.23;;
64915;SDS011;51427;-27.442;153.014;2022-09-24T04:23:29;1.85;;;1.35;;
64915;SDS011;51427;-27.442;153.014;2022-09-24T04:25:59;2.67;;;1.60;;
64915;SDS011;51427;-27.442;153.014;2022-09-24T04:28:27;1.42;;;1.35;;
64915;SDS011;51427;-27.442;153.014;2022-09-24T04:30:55;1.77;;;1.65;;
64915;SDS011;51427;-27.442;153.014;2022-09-24T04:33:23;2.25;;;1.95;;
64915;SDS011;51427;-27.442;153.014;2022-09-24T04:35:51;2.33;;;2.13;;
64915;SDS011;51427;-27.442;153.014;2022-09-24T04:38:18;1.80;;;1.70;;
64915;SDS011;51427;-27.442;153.014;2022-09-24T04:40:46;2.10;;;1.90;;
64915;SDS011;51427;-27.442;153.014;2022-09-24T04:43:14;1.65;;;1.55;;
64915;SDS011;51427;-27.442;153.014;2022-09-24T04:45:43;3.05;;;2.08;;
64915;SDS011;51427;-27.442;153.014;2022-09-24T04:48:12;4.03;;;2.40;;
64915;SDS011;51427;-27.442;153.014;2022-09-24T04:50:40;2.28;;;2.15;;
64915;SDS011;51427;-27.442;153.014;2022-09-24T04:53:09;4.40;;;2.47;;
64915;SDS011;51427;-27.442;153.014;2022-09-24T04:55:37;2.10;;;1.80;;
64915;SDS011;51427;-27.442;153.014;2022-09-24T04:58:06;2.47;;;1.98;;
64915;SDS011;51427;-27.442;153.014;2022-09-24T05:00:34;1.88;;;1.70;;
64915;SDS011;51427;-27.442;153.014;2022-09-24T05:03:01;2.20;;;2.00;;
64915;SDS011;51427;-27.442;153.014;2022-09-24T05:05:30;1.70;;;1.60;;
64915;SDS011;51427;-27.442;153.014;2022-09-24T05:07:58;1.63;;;1.50;;
64915;SDS011;51427;-27.442;153.014;2022-09-24T05:10:27;1.60;;;1.50;;
64915;SDS011;51427;-27.442;153.014;2022-09-24T05:12:56;1.95;;;1.58;;
64915;SDS011;51427;-27.442;153.014;2022-09-24T05:15:23;2.03;;;1.63;;
64915;SDS011;51427;-27.442;153.014;2022-09-24T05:17:51;1.63;;;1.52;;
64915;SDS011;51427;-27.442;153.014;2022-09-24T05:20:19;4.57;;;1.80;;
64915;SDS011;51427;-27.442;153.014;2022-09-24T05:22:47;1.90;;;1.80;;
64915;SDS011;51427;-27.442;153.014;2022-09-24T05:25:16;1.80;;;1.70;;
64915;SDS011;51427;-27.442;153.014;2022-09-24T05:27:48;1.40;;;1.38;;
64915;SDS011;51427;-27.442;153.014;2022-09-24T05:30:19;1.70;;;1.60;;
64915;SDS011;51427;-27.442;153.014;2022-09-24T05:32:48;2.25;;;1.70;;
64915;SDS011;51427;-27.442;153.014;2022-09-24T05:35:19;1.80;;;1.70;;
64915;SDS011;51427;-27.442;153.014;2022-09-24T05:37:48;1.52;;;1.42;;
64915;SDS011;51427;-27.442;153.014;2022-09-24T05:40:18;1.83;;;1.73;;
64915;SDS011;51427;-27.442;153.014;2022-09-24T05:43:03;3.30;;;2.08;;
64915;SDS011;51427;-27.442;153.014;2022-09-24T05:45:31;1.90;;;1.80;;
64915;SDS011;51427;-27.442;153.014;2022-09-24T05:47:59;1.83;;;1.73;;
64915;SDS011;51427;-27.442;153.014;2022-09-24T05:50:26;4.55;;;2.00;;
64915;SDS011;51427;-27.442;153.014;2022-09-24T05:52:54;2.72;;;1.90;;
64915;SDS011;51427;-27.442;153.014;2022-09-24T05:55:22;2.10;;;2.00;;
64915;SDS011;51427;-27.442;153.014;2022-09-24T05:57:49;1.70;;;1.60;;
64915;SDS011;51427;-27.442;153.014;2022-09-24T06:00:17;1.95;;;1.85;;
64915;SDS011;51427;-27.442;153.014;2022-09-24T06:02:45;2.00;;;1.90;;
64915;SDS011;51427;-27.442;153.014;2022-09-24T06:05:14;2.10;;;2.00;;
64915;SDS011;51427;-27.442;153.014;2022-09-24T06:07:41;1.98;;;1.83;;
64915;SDS011;51427;-27.442;153.014;2022-09-24T06:10:09;2.08;;;1.98;;
64915;SDS011;51427;-27.442;153.014;2022-09-24T06:12:37;1.80;;;1.70;;
64915;SDS011;51427;-27.442;153.014;2022-09-24T06:15:05;2.55;;;2.13;;
64915;SDS011;51427;-27.442;153.014;2022-09-24T06:17:33;5.95;;;1.95;;
64915;SDS011;51427;-27.442;153.014;2022-09-24T06:20:00;2.38;;;2.00;;
64915;SDS011;51427;-27.442;153.014;2022-09-24T06:22:28;1.75;;;1.63;;
64915;SDS011;51427;-27.442;153.014;2022-09-24T06:24:56;1.63;;;1.52;;
64915;SDS011;51427;-27.442;153.014;2022-09-24T06:27:23;2.28;;;1.70;;
64915;SDS011;51427;-27.442;153.014;2022-09-24T06:29:51;2.72;;;1.88;;
64915;SDS011;51427;-27.442;153.014;2022-09-24T06:32:18;2.13;;;1.70;;
64915;SDS011;51427;-27.442;153.014;2022-09-24T06:34:48;1.90;;;1.80;;
64915;SDS011;51427;-27.442;153.014;2022-09-24T06:37:16;3.35;;;2.00;;
64915;SDS011;51427;-27.442;153.014;2022-09-24T06:39:43;1.77;;;1.67;;
64915;SDS011;51427;-27.442;153.014;2022-09-24T06:42:11;1.77;;;1.67;;
64915;SDS011;51427;-27.442;153.014;2022-09-24T06:44:39;1.65;;;1.55;;
64915;SDS011;51427;-27.442;153.014;2022-09-24T06:47:07;1.50;;;1.40;;
64915;SDS011;51427;-27.442;153.014;2022-09-24T06:49:35;1.60;;;1.50;;
64915;SDS011;51427;-27.442;153.014;2022-09-24T06:52:02;1.77;;;1.67;;
64915;SDS011;51427;-27.442;153.014;2022-09-24T06:54:30;2.70;;;1.90;;
64915;SDS011;51427;-27.442;153.014;2022-09-24T06:56:58;1.70;;;1.60;;
64915;SDS011;51427;-27.442;153.014;2022-09-24T06:59:26;1.52;;;1.42;;
64915;SDS011;51427;-27.442;153.014;2022-09-24T07:01:54;1.40;;;1.30;;
64915;SDS011;51427;-27.442;153.014;2022-09-24T07:04:21;1.80;;;1.40;;
64915;SDS011;51427;-27.442;153.014;2022-09-24T07:06:49;1.67;;;1.58;;
64915;SDS011;51427;-27.442;153.014;2022-09-24T07:09:34;1.98;;;1.55;;
64915;SDS011;51427;-27.442;153.014;2022-09-24T07:12:05;1.80;;;1.70;;
64915;SDS011;51427;-27.442;153.014;2022-09-24T07:14:33;2.05;;;1.73;;
64915;SDS011;51427;-27.442;153.014;2022-09-24T07:17:01;1.52;;;1.42;;
64915;SDS011;51427;-27.442;153.014;2022-09-24T07:19:28;1.50;;;1.40;;
64915;SDS011;51427;-27.442;153.014;2022-09-24T07:21:56;1.52;;;1.42;;
64915;SDS011;51427;-27.442;153.014;2022-09-24T07:24:24;1.50;;;1.40;;
64915;SDS011;51427;-27.442;153.014;2022-09-24T07:26:51;1.50;;;1.20;;
64915;SDS011;51427;-27.442;153.014;2022-09-24T07:29:19;1.58;;;1.48;;
64915;SDS011;51427;-27.442;153.014;2022-09-24T07:31:46;1.60;;;1.50;;
64915;SDS011;51427;-27.442;153.014;2022-09-24T07:34:14;1.40;;;1.30;;
64915;SDS011;51427;-27.442;153.014;2022-09-24T07:36:42;1.40;;;1.30;;
64915;SDS011;51427;-27.442;153.014;2022-09-24T07:39:09;2.08;;;1.50;;
64915;SDS011;51427;-27.442;153.014;2022-09-24T07:41:37;2.05;;;1.67;;
64915;SDS011;51427;-27.442;153.014;2022-09-24T07:44:08;1.80;;;1.70;;
64915;SDS011;51427;-27.442;153.014;2022-09-24T07:46:36;4.22;;;1.70;;
64915;SDS011;51427;-27.442;153.014;2022-09-24T07:49:04;2.80;;;2.08;;
64915;SDS011;51427;-27.442;153.014;2022-09-24T07:51:31;1.80;;;1.58;;
64915;SDS011;51427;-27.442;153.014;2022-09-24T07:54:00;1.58;;;1.48;;
64915;SDS011;51427;-27.442;153.014;2022-09-24T07:56:27;1.75;;;1.48;;
64915;SDS011;51427;-27.442;153.014;2022-09-24T07:58:57;2.40;;;1.38;;
64915;SDS011;51427;-27.442;153.014;2022-09-24T08:01:25;1.40;;;1.30;;
64915;SDS011;51427;-27.442;153.014;2022-09-24T08:03:53;1.77;;;1.60;;
64915;SDS011;51427;-27.442;153.014;2022-09-24T08:06:21;1.50;;;1.35;;
64915;SDS011;51427;-27.442;153.014;2022-09-24T08:08:48;2.67;;;1.40;;
64915;SDS011;51427;-27.442;153.014;2022-09-24T08:11:18;2.00;;;1.40;;
64915;SDS011;51427;-27.442;153.014;2022-09-24T08:13:46;1.30;;;1.20;;
64915;SDS011;51427;-27.442;153.014;2022-09-24T08:16:13;1.75;;;1.63;;
64915;SDS011;51427;-27.442;153.014;2022-09-24T08:18:42;2.10;;;1.90;;
64915;SDS011;51427;-27.442;153.014;2022-09-24T08:21:10;1.50;;;1.40;;
64915;SDS011;51427;-27.442;153.014;2022-09-24T08:23:43;1.60;;;1.50;;
64915;SDS011;51427;-27.442;153.014;2022-09-24T08:26:11;2.00;;;1.80;;
64915;SDS011;51427;-27.442;153.014;2022-09-24T08:28:40;1.60;;;1.50;;
64915;SDS011;51427;-27.442;153.014;2022-09-24T08:31:09;1.73;;;1.58;;
64915;SDS011;51427;-27.442;153.014;2022-09-24T08:33:38;1.50;;;1.40;;
64915;SDS011;51427;-27.442;153.014;2022-09-24T08:36:07;1.20;;;1.10;;
64915;SDS011;51427;-27.442;153.014;2022-09-24T08:38:35;1.55;;;1.45;;
64915;SDS011;51427;-27.442;153.014;2022-09-24T08:41:06;1.52;;;1.42;;
64915;SDS011;51427;-27.442;153.014;2022-09-24T08:43:44;2.25;;;2.03;;
64915;SDS011;51427;-27.442;153.014;2022-09-24T08:46:15;2.13;;;1.67;;
64915;SDS011;51427;-27.442;153.014;2022-09-24T08:49:15;2.53;;;2.00;;
64915;SDS011;51427;-27.442;153.014;2022-09-24T08:51:58;1.83;;;1.67;;
64915;SDS011;51427;-27.442;153.014;2022-09-24T08:54:27;2.03;;;1.52;;
64915;SDS011;51427;-27.442;153.014;2022-09-24T08:56:59;2.22;;;1.90;;
64915;SDS011;51427;-27.442;153.014;2022-09-24T08:59:36;1.92;;;1.73;;
64915;SDS011;51427;-27.442;153.014;2022-09-24T09:08:22;10.88;;;2.78;;
64915;SDS011;51427;-27.442;153.014;2022-09-24T09:11:00;2.42;;;2.10;;
64915;SDS011;51427;-27.442;153.014;2022-09-24T09:13:35;3.58;;;2.05;;
64915;SDS011;51427;-27.442;153.014;2022-09-24T09:18:51;2.67;;;2.15;;
64915;SDS011;51427;-27.442;153.014;2022-09-24T09:21:35;4.32;;;2.10;;
64915;SDS011;51427;-27.442;153.014;2022-09-24T09:24:50;4.80;;;2.60;;
64915;SDS011;51427;-27.442;153.014;2022-09-24T09:27:21;2.40;;;2.20;;
64915;SDS011;51427;-27.442;153.014;2022-09-24T09:30:03;5.35;;;2.40;;
64915;SDS011;51427;-27.442;153.014;2022-09-24T09:35:20;2.47;;;2.15;;
64915;SDS011;51427;-27.442;153.014;2022-09-24T09:38:01;3.72;;;2.25;;
64915;SDS011;51427;-27.442;153.014;2022-09-24T09:40:38;3.08;;;2.20;;
64915;SDS011;51427;-27.442;153.014;2022-09-24T09:43:11;3.25;;;2.03;;
64915;SDS011;51427;-27.442;153.014;2022-09-24T09:48:19;2.97;;;2.20;;
64915;SDS011;51427;-27.442;153.014;2022-09-24T09:50:52;2.17;;;1.90;;
64915;SDS011;51427;-27.442;153.014;2022-09-24T09:53:29;2.17;;;1.98;;
64915;SDS011;51427;-27.442;153.014;2022-09-24T09:58:35;2.70;;;2.20;;
64915;SDS011;51427;-27.442;153.014;2022-09-24T10:01:05;2.42;;;2.22;;
64915;SDS011;51427;-27.442;153.014;2022-09-24T10:03:44;2.00;;;1.90;;
64915;SDS011;51427;-27.442;153.014;2022-09-24T10:06:25;3.25;;;2.10;;
64915;SDS011;51427;-27.442;153.014;2022-09-24T10:09:05;2.72;;;2.53;;
64915;SDS011;51427;-27.442;153.014;2022-09-24T10:11:41;2.50;;;2.10;;
64915;SDS011;51427;-27.442;153.014;2022-09-24T10:14:09;2.95;;;2.40;;
64915;SDS011;51427;-27.442;153.014;2022-09-24T10:16:41;2.60;;;2.28;;
64915;SDS011;51427;-27.442;153.014;2022-09-24T10:19:14;2.28;;;2.08;;
64915;SDS011;51427;-27.442;153.014;2022-09-24T10:21:43;2.33;;;2.10;;
64915;SDS011;51427;-27.442;153.014;2022-09-24T10:24:13;3.38;;;1.98;;
64915;SDS011;51427;-27.442;153.014;2022-09-24T10:26:44;2.15;;;1.98;;
64915;SDS011;51427;-27.442;153.014;2022-09-24T10:29:16;3.03;;;1.92;;
64915;SDS011;51427;-27.442;153.014;2022-09-24T10:32:03;2.50;;;2.30;;
64915;SDS011;51427;-27.442;153.014;2022-09-24T10:34:31;3.50;;;2.28;;
64915;SDS011;51427;-27.442;153.014;2022-09-24T10:37:00;2.13;;;1.92;;
64915;SDS011;51427;-27.442;153.014;2022-09-24T10:39:30;2.45;;;1.90;;
64915;SDS011;51427;-27.442;153.014;2022-09-24T10:41:57;1.90;;;1.80;;
64915;SDS011;51427;-27.442;153.014;2022-09-24T10:44:35;1.88;;;1.60;;
64915;SDS011;51427;-27.442;153.014;2022-09-24T10:49:51;2.25;;;1.75;;
64915;SDS011;51427;-27.442;153.014;2022-09-24T11:00:54;1.52;;;1.30;;
64915;SDS011;51427;-27.442;153.014;2022-09-24T11:06:39;3.85;;;1.73;;
64915;SDS011;51427;-27.442;153.014;2022-09-24T11:11:54;1.73;;;1.63;;
64915;SDS011;51427;-27.442;153.014;2022-09-24T11:26:07;1.60;;;1.50;;
64915;SDS011;51427;-27.442;153.014;2022-09-24T11:55:28;1.98;;;1.60;;
64915;SDS011;51427;-27.442;153.014;2022-09-24T11:57:40;2.35;;;1.50;;
64915;SDS011;51427;-27.442;153.014;2022-09-24T12:00:14;2.20;;;1.45;;
64915;SDS011;51427;-27.442;153.014;2022-09-24T12:05:24;1.75;;;1.65;;
64915;SDS011;51427;-27.442;153.014;2022-09-24T12:07:59;2.33;;;1.60;;
64915;SDS011;51427;-27.442;153.014;2022-09-24T12:13:43;1.70;;;1.50;;
64915;SDS011;51427;-27.442;153.014;2022-09-24T12:16:24;1.95;;;1.30;;
64915;SDS011;51427;-27.442;153.014;2022-09-24T12:22:13;2.10;;;1.80;;
64915;SDS011;51427;-27.442;153.014;2022-09-24T12:24:45;2.85;;;1.52;;
64915;SDS011;51427;-27.442;153.014;2022-09-24T12:27:36;1.88;;;1.48;;
64915;SDS011;51427;-27.442;153.014;2022-09-24T12:33:16;1.63;;;1.52;;
64915;SDS011;51427;-27.442;153.014;2022-09-24T12:46:55;1.60;;;1.50;;
64915;SDS011;51427;-27.442;153.014;2022-09-24T12:51:52;1.60;;;1.42;;
64915;SDS011;51427;-27.442;153.014;2022-09-24T12:59:54;1.65;;;1.52;;
64915;SDS011;51427;-27.442;153.014;2022-09-24T13:02:23;1.80;;;1.70;;
64915;SDS011;51427;-27.442;153.014;2022-09-24T13:07:42;2.25;;;1.90;;
64915;SDS011;51427;-27.442;153.014;2022-09-24T13:12:51;2.20;;;1.77;;
64915;SDS011;51427;-27.442;153.014;2022-09-24T13:18:20;1.95;;;1.75;;
64915;SDS011;51427;-27.442;153.014;2022-09-24T13:21:24;3.90;;;1.58;;
64915;SDS011;51427;-27.442;153.014;2022-09-24T13:23:49;2.95;;;2.05;;
64915;SDS011;51427;-27.442;153.014;2022-09-24T13:28:52;2.10;;;1.90;;
64915;SDS011;51427;-27.442;153.014;2022-09-24T13:34:11;2.20;;;1.90;;
64915;SDS011;51427;-27.442;153.014;2022-09-24T13:44:54;2.65;;;1.90;;
64915;SDS011;51427;-27.442;153.014;2022-09-24T13:47:27;2.58;;;1.55;;
64915;SDS011;51427;-27.442;153.014;2022-09-24T13:52:57;2.50;;;1.70;;
64915;SDS011;51427;-27.442;153.014;2022-09-24T13:58:02;2.42;;;1.75;;
64915;SDS011;51427;-27.442;153.014;2022-09-24T14:00:30;2.13;;;1.65;;
64915;SDS011;51427;-27.442;153.014;2022-09-24T14:03:19;2.00;;;1.60;;
64915;SDS011;51427;-27.442;153.014;2022-09-24T14:05:48;1.60;;;1.50;;
64915;SDS011;51427;-27.442;153.014;2022-09-24T14:08:17;2.10;;;1.88;;
64915;SDS011;51427;-27.442;153.014;2022-09-24T14:10:48;1.98;;;1.70;;
64915;SDS011;51427;-27.442;153.014;2022-09-24T14:13:17;1.70;;;1.60;;
64915;SDS011;51427;-27.442;153.014;2022-09-24T14:15:58;2.75;;;1.70;;
64915;SDS011;51427;-27.442;153.014;2022-09-24T14:18:34;1.83;;;1.70;;
64915;SDS011;51427;-27.442;153.014;2022-09-24T14:21:06;1.70;;;1.60;;
64915;SDS011;51427;-27.442;153.014;2022-09-24T14:23:53;1.80;;;1.70;;
64915;SDS011;51427;-27.442;153.014;2022-09-24T14:26:33;1.60;;;1.40;;
64915;SDS011;51427;-27.442;153.014;2022-09-24T14:29:24;1.77;;;1.67;;
64915;SDS011;51427;-27.442;153.014;2022-09-24T14:31:58;1.73;;;1.63;;
64915;SDS011;51427;-27.442;153.014;2022-09-24T14:34:39;1.98;;;1.40;;
64915;SDS011;51427;-27.442;153.014;2022-09-24T14:37:09;2.33;;;1.67;;
64915;SDS011;51427;-27.442;153.014;2022-09-24T14:39:43;2.80;;;1.52;;
64915;SDS011;51427;-27.442;153.014;2022-09-24T14:42:23;1.42;;;1.33;;
64915;SDS011;51427;-27.442;153.014;2022-09-24T14:44:52;1.80;;;1.70;;
64915;SDS011;51427;-27.442;153.014;2022-09-24T14:47:31;2.20;;;1.70;;
64915;SDS011;51427;-27.442;153.014;2022-09-24T14:50:00;2.55;;;1.70;;
64915;SDS011;51427;-27.442;153.014;2022-09-24T14:52:34;2.42;;;1.63;;
64915;SDS011;51427;-27.442;153.014;2022-09-24T14:55:34;1.90;;;1.80;;
64915;SDS011;51427;-27.442;153.014;2022-09-24T14:58:01;2.13;;;1.80;;
64915;SDS011;51427;-27.442;153.014;2022-09-24T15:00:36;1.70;;;1.60;;
64915;SDS011;51427;-27.442;153.014;2022-09-24T15:03:14;1.67;;;1.58;;
64915;SDS011;51427;-27.442;153.014;2022-09-24T15:05:46;2.13;;;1.50;;
64915;SDS011;51427;-27.442;153.014;2022-09-24T15:10:52;3.10;;;1.95;;
64915;SDS011;51427;-27.442;153.014;2022-09-24T15:13:25;2.67;;;1.75;;
64915;SDS011;51427;-27.442;153.014;2022-09-24T15:16:46;2.53;;;2.00;;
64915;SDS011;51427;-27.442;153.014;2022-09-24T15:18:58;2.65;;;1.90;;
64915;SDS011;51427;-27.442;153.014;2022-09-24T15:21:48;2.03;;;1.80;;
64915;SDS011;51427;-27.442;153.014;2022-09-24T15:24:17;2.67;;;1.83;;
64915;SDS011;51427;-27.442;153.014;2022-09-24T15:26:48;1.85;;;1.67;;
64915;SDS011;51427;-27.442;153.014;2022-09-24T15:29:30;3.30;;;1.60;;
64915;SDS011;51427;-27.442;153.014;2022-09-24T15:31:57;2.75;;;1.77;;
64915;SDS011;51427;-27.442;153.014;2022-09-24T15:34:25;2.75;;;2.00;;
64915;SDS011;51427;-27.442;153.014;2022-09-24T15:36:54;7.80;;;2.85;;
64915;SDS011;51427;-27.442;153.014;2022-09-24T15:39:24;3.17;;;1.90;;
64915;SDS011;51427;-27.442;153.014;2022-09-24T15:41:52;1.73;;;1.63;;
64915;SDS011;51427;-27.442;153.014;2022-09-24T15:44:23;2.03;;;1.85;;
64915;SDS011;51427;-27.442;153.014;2022-09-24T15:46:51;1.90;;;1.80;;
64915;SDS011;51427;-27.442;153.014;2022-09-24T15:49:19;2.03;;;1.77;;
64915;SDS011;51427;-27.442;153.014;2022-09-24T15:54:26;2.00;;;1.80;;
64915;SDS011;51427;-27.442;153.014;2022-09-24T15:56:54;2.90;;;1.70;;
64915;SDS011;51427;-27.442;153.014;2022-09-24T15:59:21;1.50;;;1.40;;
64915;SDS011;51427;-27.442;153.014;2022-09-24T16:01:50;1.73;;;1.52;;
64915;SDS011;51427;-27.442;153.014;2022-09-24T16:04:19;2.30;;;1.60;;
64915;SDS011;51427;-27.442;153.014;2022-09-24T16:06:47;3.60;;;2.00;;
64915;SDS011;51427;-27.442;153.014;2022-09-24T16:09:15;2.25;;;1.50;;
64915;SDS011;51427;-27.442;153.014;2022-09-24T16:11:42;2.08;;;1.88;;
64915;SDS011;51427;-27.442;153.014;2022-09-24T16:14:11;1.88;;;1.77;;
64915;SDS011;51427;-27.442;153.014;2022-09-24T16:16:39;4.43;;;1.95;;
64915;SDS011;51427;-27.442;153.014;2022-09-24T16:19:07;2.30;;;1.70;;
64915;SDS011;51427;-27.442;153.014;2022-09-24T16:21:35;2.10;;;1.70;;
64915;SDS011;51427;-27.442;153.014;2022-09-24T16:24:02;2.33;;;2.05;;
64915;SDS011;51427;-27.442;153.014;2022-09-24T16:26:30;2.05;;;1.90;;
64915;SDS011;51427;-27.442;153.014;2022-09-24T16:29:00;2.38;;;1.90;;
64915;SDS011;51427;-27.442;153.014;2022-09-24T16:31:29;4.47;;;1.90;;
64915;SDS011;51427;-27.442;153.014;2022-09-24T16:33:58;2.20;;;1.80;;
64915;SDS011;51427;-27.442;153.014;2022-09-24T16:36:25;2.58;;;1.80;;
64915;SDS011;51427;-27.442;153.014;2022-09-24T16:38:53;3.15;;;2.00;;
64915;SDS011;51427;-27.442;153.014;2022-09-24T16:41:22;3.67;;;2.10;;
64915;SDS011;51427;-27.442;153.014;2022-09-24T16:43:53;2.17;;;1.77;;
64915;SDS011;51427;-27.442;153.014;2022-09-24T16:46:21;2.15;;;1.70;;
64915;SDS011;51427;-27.442;153.014;2022-09-24T16:48:49;1.70;;;1.60;;
64915;SDS011;51427;-27.442;153.014;2022-09-24T16:51:17;2.45;;;1.85;;
64915;SDS011;51427;-27.442;153.014;2022-09-24T16:53:44;2.15;;;1.80;;
64915;SDS011;51427;-27.442;153.014;2022-09-24T16:56:14;2.70;;;1.88;;
64915;SDS011;51427;-27.442;153.014;2022-09-24T16:58:42;2.88;;;1.98;;
64915;SDS011;51427;-27.442;153.014;2022-09-24T17:01:13;2.65;;;2.00;;
64915;SDS011;51427;-27.442;153.014;2022-09-24T17:03:43;1.60;;;1.45;;
64915;SDS011;51427;-27.442;153.014;2022-09-24T17:06:19;1.77;;;1.67;;
64915;SDS011;51427;-27.442;153.014;2022-09-24T17:08:48;2.13;;;1.90;;
64915;SDS011;51427;-27.442;153.014;2022-09-24T17:11:34;2.15;;;1.95;;